Redwood City, CA (94064)

01:49 PM PST die 16o January, anno 2017 (GMT -0800)
Sterling Heights | | Change Station

Elev 134 ft 37.46 °N, 122.25 °W | Updated 1 minute ago

Partly Cloudy
Partialiter Nubila
55.9 °F
Feels Like 55.9 °F
N
4.3
Ventus Variabilis Ventus from Aquilo
Gusts 7.0 mph

Hodie
High -- | Low -- °F
--% Chance of Precip.
Yesterday
High -- | Low -- °F
Precip. -- in
Pressio 30.16 in
Visibilitas 10.0 milia passuum
Clouds Few 20000 ft
Frigus in quo Ros apparet 37 °F
Umor 49%
Rainfall 0.01 in
Snow Depth Not available.
7:21 AM 5:16 PM
Waning Gibbous, 78% visible
METAR KSQL 162055Z 00000KT 10SM FEW200 12/03 A3016
Pressio 30.16 in
Visibilitas 10.0 milia passuum
Clouds Few 20000 ft
Frigus in quo Ros apparet 37 °F
Umor 49%
Rainfall 0.01 in
Snow Depth Not available.
7:21 AM 5:16 PM
Waning Gibbous, 78% visible
METAR KSQL 162055Z 00000KT 10SM FEW200 12/03 A3016

Get Your Daily Forecast Email!

Thanks for signing up!

Be on the lookout for a verification email in your inbox.

You'll start receiving the daily forecast at 8 AM.

×

10-Day Weather Forecast

Almanac

Astronomy

Jan. 16, 2017 Rise Set
Actual Time
Civil Twilight
Nautical Twilight
Astronomical Twilight
Moon
Length Of Visible Light
Length of Day
Tomorrow will be .
, % of the Moon is Illuminated

Today's Extremes

State Highs State Lows

Community

WunderPhotos

Upload Photos

1,962,540 photos uploaded!

WunderBlog® & News

Nearby

Air Quality

  Air Quality AQ Index Pollutant
Not available.

Snow Depth

Station Depth Elevation

Earthquake Activity

City Distance Mag. Time & Date
Minimum magnitude displayed is 2.5.

Coastal Water Temperatures

Locus Calor

Stations

Nearby Weather Stations

Station Location Temp Frigus Venti Frigus in quo Ros apparet Umor Ventus Precip. Elev Renovata Type
                   

Watches & Warnings

There are currently no watches in effect.